createdAt,value
2018-01-05T00:00:34.702Z,3.26
2018-01-05T00:03:02.496Z,3.22
2018-01-05T00:05:30.099Z,3.22
2018-01-05T00:07:57.831Z,3.14
2018-01-05T00:10:25.462Z,3.19
2018-01-05T00:12:53.226Z,3.08
2018-01-05T00:15:20.886Z,3.06
2018-01-05T00:17:48.704Z,3.00
2018-01-05T00:20:16.268Z,2.98
2018-01-05T00:22:44.040Z,2.95
2018-01-05T00:25:11.750Z,2.91
2018-01-05T00:27:39.313Z,2.93
2018-01-05T00:30:06.934Z,2.96
2018-01-05T00:32:34.812Z,2.94
2018-01-05T00:35:02.382Z,2.92
2018-01-05T00:37:29.941Z,2.85
2018-01-05T00:39:57.551Z,2.87
2018-01-05T00:42:25.284Z,2.88
2018-01-05T00:44:52.850Z,2.79
2018-01-05T00:47:20.461Z,2.83
2018-01-05T00:49:48.241Z,2.80
2018-01-05T00:52:15.936Z,2.67
2018-01-05T00:54:43.535Z,2.63
2018-01-05T00:57:11.096Z,2.65
2018-01-05T00:59:38.658Z,2.56
2018-01-05T01:02:06.601Z,2.60
2018-01-05T01:04:34.317Z,2.64
2018-01-05T01:07:01.910Z,2.57
2018-01-05T01:09:29.515Z,2.51
2018-01-05T01:11:57.302Z,2.53
2018-01-05T01:14:25.119Z,2.55
2018-01-05T01:16:52.872Z,2.64
2018-01-05T01:19:20.452Z,2.58
2018-01-05T01:21:48.176Z,2.60
2018-01-05T01:24:15.892Z,2.62
2018-01-05T01:26:43.455Z,2.54
2018-01-05T01:29:11.228Z,2.45
2018-01-05T01:31:38.853Z,2.47
2018-01-05T01:34:06.666Z,2.47
2018-01-05T01:36:34.483Z,2.50
2018-01-05T01:39:02.110Z,2.52
2018-01-05T01:41:29.675Z,2.52
2018-01-05T01:43:57.242Z,2.56
2018-01-05T01:46:24.926Z,2.52
2018-01-05T01:48:52.482Z,2.57
2018-01-05T01:51:20.046Z,2.61
2018-01-05T01:53:47.900Z,2.56
2018-01-05T01:56:15.474Z,2.55
2018-01-05T01:58:43.038Z,2.58
2018-01-05T02:01:10.968Z,2.59
2018-01-05T02:03:38.537Z,2.58
2018-01-05T02:06:06.270Z,2.58
2018-01-05T02:08:33.894Z,2.56
2018-01-05T02:11:01.635Z,2.53
2018-01-05T02:13:29.190Z,2.52
2018-01-05T02:15:56.807Z,2.58
2018-01-05T02:18:24.376Z,2.54
2018-01-05T02:20:51.942Z,2.47
2018-01-05T02:23:19.674Z,2.34
2018-01-05T02:25:47.444Z,2.25
2018-01-05T02:28:15.011Z,2.24
2018-01-05T02:30:42.656Z,2.19
2018-01-05T02:33:10.373Z,2.12
2018-01-05T02:35:38.089Z,2.02
2018-01-05T02:38:05.935Z,1.98
2018-01-05T02:40:33.499Z,1.91
2018-01-05T02:43:01.238Z,1.89
2018-01-05T02:45:28.845Z,1.98
2018-01-05T02:47:56.570Z,1.98
2018-01-05T02:50:24.110Z,1.99
2018-01-05T02:52:51.943Z,2.00
2018-01-05T02:55:19.552Z,1.89
2018-01-05T02:57:47.130Z,1.81
2018-01-05T03:00:14.846Z,1.75
2018-01-05T03:02:42.406Z,1.73
2018-01-05T03:05:10.131Z,1.74
2018-01-05T03:07:37.846Z,1.79
2018-01-05T03:10:05.410Z,1.83
2018-01-05T03:12:33.010Z,1.88
2018-01-05T03:15:00.773Z,1.78
2018-01-05T03:17:28.339Z,1.75
2018-01-05T03:19:55.904Z,1.71
2018-01-05T03:22:23.758Z,1.68
2018-01-05T03:24:51.318Z,1.64
2018-01-05T03:27:19.094Z,1.70
2018-01-05T03:29:47.013Z,1.72
2018-01-05T03:32:14.574Z,1.70
2018-01-05T03:34:42.349Z,1.62
2018-01-05T03:37:10.116Z,1.64
2018-01-05T03:39:37.680Z,1.58
2018-01-05T03:42:05.245Z,1.53
2018-01-05T03:44:32.858Z,1.48
2018-01-05T03:47:00.640Z,1.42
2018-01-05T03:49:28.206Z,1.40
2018-01-05T03:51:55.921Z,1.47
2018-01-05T03:54:23.585Z,1.51
2018-01-05T03:56:51.220Z,1.50
2018-01-05T03:59:18.825Z,1.46
2018-01-05T04:01:46.547Z,1.35
2018-01-05T04:04:15.169Z,1.31
2018-01-05T04:06:42.856Z,1.39
2018-01-05T04:09:10.414Z,1.46
2018-01-05T04:11:38.223Z,1.41
2018-01-05T04:14:06.056Z,1.33
2018-01-05T04:16:33.625Z,1.17
2018-01-05T04:19:01.379Z,1.06
2018-01-05T04:21:29.004Z,1.02
2018-01-05T04:23:56.814Z,1.00
2018-01-05T04:26:24.533Z,1.00
2018-01-05T04:28:52.351Z,0.92
2018-01-05T04:31:20.169Z,0.93
2018-01-05T04:33:47.745Z,0.98
2018-01-05T04:36:15.372Z,0.95
2018-01-05T04:38:43.097Z,0.89
2018-01-05T04:41:10.658Z,0.88
2018-01-05T04:43:38.452Z,0.83
2018-01-05T04:46:06.022Z,0.85
2018-01-05T04:48:33.795Z,0.96
2018-01-05T04:51:01.413Z,0.95
2018-01-05T04:53:28.985Z,0.94
2018-01-05T04:55:56.548Z,0.85
2018-01-05T04:58:24.249Z,0.92
2018-01-05T05:00:51.827Z,1.01
2018-01-05T05:03:19.387Z,1.06
2018-01-05T05:05:47.070Z,1.07
2018-01-05T05:08:14.838Z,1.06
2018-01-05T05:10:42.557Z,1.04
2018-01-05T05:13:10.172Z,0.94
2018-01-05T05:15:37.774Z,0.94
2018-01-05T05:18:05.330Z,0.90
2018-01-05T05:20:33.129Z,0.86
2018-01-05T05:23:00.694Z,0.83
2018-01-05T05:25:28.565Z,0.84
2018-01-05T05:27:56.385Z,0.86
2018-01-05T05:30:24.103Z,0.92
2018-01-05T05:32:51.662Z,0.91
2018-01-05T05:35:19.270Z,0.94
2018-01-05T05:37:46.846Z,0.95
2018-01-05T05:40:14.464Z,0.98
2018-01-05T05:42:42.062Z,1.02
2018-01-05T05:45:09.701Z,1.08
2018-01-05T05:47:37.261Z,1.07
2018-01-05T05:50:05.272Z,1.10
2018-01-05T05:52:32.847Z,1.18
2018-01-05T05:55:00.433Z,1.18
2018-01-05T05:57:28.201Z,1.13
2018-01-05T05:59:55.757Z,1.15
2018-01-05T06:02:23.318Z,1.23
2018-01-05T06:04:50.943Z,1.21
2018-01-05T06:07:18.651Z,1.17
2018-01-05T06:09:46.214Z,1.07
2018-01-05T06:12:14.108Z,1.13
2018-01-05T06:14:41.716Z,1.18
2018-01-05T06:17:09.346Z,1.24
2018-01-05T06:19:36.961Z,1.32
2018-01-05T06:22:04.534Z,1.30
2018-01-05T06:24:32.180Z,1.25
2018-01-05T06:26:59.794Z,1.23
2018-01-05T06:29:27.534Z,1.24
2018-01-05T06:31:55.120Z,1.33
2018-01-05T06:34:22.741Z,1.41
2018-01-05T06:36:50.487Z,1.47
2018-01-05T06:39:18.046Z,1.47
2018-01-05T06:41:46.003Z,1.47
2018-01-05T06:44:13.658Z,1.52
2018-01-05T06:46:41.250Z,1.59
2018-01-05T06:49:08.948Z,1.70
2018-01-05T06:51:36.696Z,1.77
2018-01-05T06:54:04.268Z,1.88
2018-01-05T06:56:31.882Z,2.00
2018-01-05T06:58:59.446Z,2.10
2018-01-05T07:01:27.168Z,2.20
2018-01-05T07:03:54.762Z,2.22
2018-01-05T07:06:22.322Z,2.28
2018-01-05T07:08:50.122Z,2.42
2018-01-05T07:11:17.940Z,2.55
2018-01-05T07:13:45.502Z,2.65
2018-01-05T07:16:13.076Z,2.79
2018-01-05T07:18:40.689Z,2.94
2018-01-05T07:21:08.245Z,3.15
2018-01-05T07:23:35.806Z,4.01
2018-01-05T07:26:03.422Z,5.50
2018-01-05T07:28:31.000Z,7.35
2018-01-05T07:30:58.578Z,8.86
2018-01-05T07:33:26.401Z,9.68
2018-01-05T07:35:53.962Z,10.80
2018-01-05T07:38:21.623Z,11.81
2018-01-05T07:40:49.455Z,12.39
2018-01-05T07:43:17.274Z,13.12
2018-01-05T07:45:45.092Z,14.24
2018-01-05T07:48:12.718Z,14.73
2018-01-05T07:50:40.529Z,14.15
2018-01-05T07:53:08.090Z,13.45
2018-01-05T07:55:35.941Z,13.53
2018-01-05T07:58:03.656Z,13.69
2018-01-05T08:00:31.300Z,14.09
2018-01-05T08:02:58.910Z,14.50
2018-01-05T08:05:26.478Z,14.65
2018-01-05T08:07:54.042Z,14.83
2018-01-05T08:10:21.659Z,15.46
2018-01-05T08:12:49.392Z,16.10
2018-01-05T08:15:17.001Z,16.61
2018-01-05T08:17:44.634Z,16.81
2018-01-05T08:20:12.345Z,16.84
2018-01-05T08:22:39.914Z,16.94
2018-01-05T08:25:07.781Z,17.12
2018-01-05T08:27:35.391Z,17.19
2018-01-05T08:30:03.217Z,17.50
2018-01-05T08:32:30.859Z,18.28
2018-01-05T08:34:58.509Z,18.29
2018-01-05T08:37:26.054Z,18.41
2018-01-05T08:39:53.990Z,18.60
2018-01-05T08:42:21.562Z,18.46
2018-01-05T08:44:49.119Z,18.55
2018-01-05T08:47:16.888Z,17.63
2018-01-05T08:49:44.628Z,18.34
2018-01-05T08:52:12.191Z,18.10
2018-01-05T08:54:39.822Z,17.45
2018-01-05T08:57:07.385Z,17.73
2018-01-05T08:59:34.943Z,18.00
2018-01-05T09:02:02.713Z,18.03
2018-01-05T09:04:30.278Z,17.66
2018-01-05T09:06:57.887Z,17.46
2018-01-05T09:09:25.711Z,17.59
2018-01-05T09:11:53.295Z,17.53
2018-01-05T09:14:20.862Z,17.44
2018-01-05T09:16:48.481Z,17.51
2018-01-05T09:19:16.065Z,17.52
2018-01-05T09:21:43.896Z,17.65
2018-01-05T09:24:11.525Z,17.59
2018-01-05T09:26:39.224Z,17.90
2018-01-05T09:29:06.788Z,17.96
2018-01-05T09:31:34.458Z,18.07
2018-01-05T09:34:02.026Z,18.03
2018-01-05T09:36:29.575Z,18.08
2018-01-05T09:38:57.202Z,18.63
2018-01-05T09:41:24.756Z,18.16
2018-01-05T09:43:52.362Z,18.12
2018-01-05T09:46:20.038Z,18.35
2018-01-05T09:48:47.754Z,17.84
2018-01-05T09:51:15.472Z,17.89
2018-01-05T09:53:43.102Z,18.62
2018-01-05T09:56:10.674Z,18.75
2018-01-05T09:58:38.247Z,18.39
2018-01-05T10:01:06.083Z,18.39
2018-01-05T10:03:33.692Z,18.58
2018-01-05T10:06:01.420Z,19.14
2018-01-05T10:08:29.039Z,19.70
2018-01-05T10:10:56.626Z,20.29
2018-01-05T10:13:24.346Z,19.97
2018-01-05T10:15:52.183Z,19.53
2018-01-05T10:18:19.778Z,19.01
2018-01-05T10:20:47.358Z,18.83
2018-01-05T10:23:14.986Z,19.04
2018-01-05T10:25:42.614Z,19.49
2018-01-05T10:28:10.273Z,19.62
2018-01-05T10:30:37.921Z,19.64
2018-01-05T10:33:05.517Z,19.70
2018-01-05T10:35:33.063Z,19.81
2018-01-05T10:38:00.744Z,19.80
2018-01-05T10:40:28.377Z,19.83
2018-01-05T10:42:55.939Z,19.53
2018-01-05T10:45:23.623Z,19.39
2018-01-05T10:47:51.276Z,19.15
2018-01-05T10:50:18.827Z,19.14
2018-01-05T10:52:46.444Z,19.18
2018-01-05T10:55:14.157Z,19.29
2018-01-05T10:57:41.872Z,19.22
2018-01-05T11:00:09.477Z,19.64
2018-01-05T11:02:37.038Z,20.20
2018-01-05T11:05:04.594Z,20.25
2018-01-05T11:07:32.372Z,19.87
2018-01-05T11:10:00.091Z,19.03
2018-01-05T11:12:27.905Z,18.45
2018-01-05T11:14:55.522Z,17.78
2018-01-05T11:17:23.077Z,17.46
2018-01-05T11:19:50.638Z,17.09
2018-01-05T11:22:18.248Z,16.55
2018-01-05T11:24:45.812Z,16.33
2018-01-05T11:27:13.405Z,16.08
2018-01-05T11:29:41.233Z,15.78
2018-01-05T11:32:08.798Z,15.45
2018-01-05T11:34:36.358Z,15.46
2018-01-05T11:37:04.026Z,15.24
2018-01-05T11:39:31.779Z,15.02
2018-01-05T11:41:59.497Z,14.96
2018-01-05T11:44:27.440Z,14.73
2018-01-05T11:46:55.258Z,14.55
2018-01-05T11:49:22.947Z,14.56
2018-01-05T11:51:50.564Z,14.63
2018-01-05T11:54:18.123Z,14.76
2018-01-05T11:56:45.930Z,14.72
2018-01-05T11:59:13.753Z,14.75
2018-01-05T12:01:41.567Z,14.77
2018-01-05T12:04:09.178Z,14.70
2018-01-05T12:06:37.200Z,14.77
2018-01-05T12:09:04.848Z,14.72
2018-01-05T12:11:32.701Z,14.63
2018-01-05T12:14:00.446Z,14.53
2018-01-05T12:16:28.009Z,14.57
2018-01-05T12:18:55.614Z,14.48
2018-01-05T12:21:23.318Z,14.49
2018-01-05T12:23:51.023Z,14.45
2018-01-05T12:26:18.579Z,14.34
2018-01-05T12:28:46.367Z,14.30
2018-01-05T12:31:14.286Z,14.14
2018-01-05T12:33:41.856Z,14.03
2018-01-05T12:36:09.576Z,13.97
2018-01-05T12:38:37.240Z,13.98
2018-01-05T12:41:04.803Z,13.97
2018-01-05T12:43:32.677Z,13.89
2018-01-05T12:46:00.286Z,13.83
2018-01-05T12:48:27.868Z,13.75
2018-01-05T12:50:55.521Z,13.73
2018-01-05T12:53:23.249Z,13.70
2018-01-05T12:55:51.067Z,13.80
2018-01-05T12:58:19.086Z,13.84
2018-01-05T13:00:46.905Z,13.76
2018-01-05T13:03:14.513Z,13.69
2018-01-05T13:05:42.342Z,13.69
2018-01-05T13:08:09.909Z,13.62
2018-01-05T13:10:37.468Z,13.62
2018-01-05T13:13:05.139Z,13.59
2018-01-05T13:15:32.914Z,13.54
2018-01-05T13:18:00.732Z,13.46
2018-01-05T13:20:28.351Z,13.39
2018-01-05T13:22:56.126Z,13.32
2018-01-05T13:25:23.776Z,13.26
2018-01-05T13:27:51.708Z,13.16
2018-01-05T13:30:19.316Z,13.06
2018-01-05T13:32:46.895Z,12.99
2018-01-05T13:35:14.491Z,12.93
2018-01-05T13:37:42.070Z,12.85
2018-01-05T13:40:09.726Z,12.73
2018-01-05T13:42:37.291Z,12.66
2018-01-05T13:45:04.883Z,12.57
2018-01-05T13:47:32.649Z,12.50
2018-01-05T13:50:00.261Z,12.45
2018-01-05T13:52:28.084Z,12.31
2018-01-05T13:54:55.673Z,12.29
2018-01-05T13:57:23.246Z,12.18
2018-01-05T13:59:50.832Z,12.12
2018-01-05T14:02:18.556Z,12.04
2018-01-05T14:04:46.188Z,12.03
2018-01-05T14:07:13.986Z,12.01
2018-01-05T14:09:41.558Z,12.03
2018-01-05T14:12:09.329Z,12.00
2018-01-05T14:14:37.068Z,12.03
2018-01-05T14:17:04.724Z,12.00
2018-01-05T14:19:32.487Z,11.97
2018-01-05T14:22:00.301Z,11.89
2018-01-05T14:24:27.974Z,11.92
2018-01-05T14:26:55.559Z,11.85
2018-01-05T14:29:23.318Z,11.75
2018-01-05T14:31:51.040Z,11.68
2018-01-05T14:34:18.756Z,11.64
2018-01-05T14:36:46.482Z,11.59
2018-01-05T14:39:14.050Z,11.55
2018-01-05T14:41:41.695Z,11.50
2018-01-05T14:44:09.289Z,11.43
2018-01-05T14:46:37.084Z,11.31
2018-01-05T14:49:04.902Z,11.33
2018-01-05T14:51:32.512Z,11.23
2018-01-05T14:54:00.134Z,11.11
2018-01-05T14:56:27.747Z,11.10
2018-01-05T14:58:55.314Z,11.04
2018-01-05T15:01:23.091Z,10.98
2018-01-05T15:03:51.125Z,10.84
2018-01-05T15:06:18.810Z,10.88
2018-01-05T15:08:46.386Z,10.85
2018-01-05T15:11:13.964Z,10.81
2018-01-05T15:13:41.575Z,10.81
2018-01-05T15:16:09.150Z,10.74
2018-01-05T15:18:36.979Z,10.70
2018-01-05T15:21:04.560Z,10.68
2018-01-05T15:23:32.140Z,10.61
2018-01-05T15:25:59.748Z,10.58
2018-01-05T15:28:27.320Z,10.54
2018-01-05T15:30:54.955Z,10.50
2018-01-05T15:33:22.727Z,10.54
2018-01-05T15:35:50.306Z,10.53
2018-01-05T15:38:17.899Z,10.49
2018-01-05T15:40:45.466Z,10.45
2018-01-05T15:43:13.173Z,10.46
2018-01-05T15:45:40.807Z,10.42
2018-01-05T15:48:08.382Z,10.36
2018-01-05T15:50:35.983Z,10.31
2018-01-05T15:53:03.661Z,10.34
2018-01-05T15:55:31.298Z,10.29
2018-01-05T15:57:59.006Z,10.30
2018-01-05T16:00:26.578Z,10.29
2018-01-05T16:02:54.202Z,10.28
2018-01-05T16:05:21.774Z,10.29
2018-01-05T16:07:49.406Z,10.27
2018-01-05T16:10:17.000Z,10.26
2018-01-05T16:12:44.714Z,10.24
2018-01-05T16:15:12.424Z,10.22
2018-01-05T16:17:40.045Z,10.19
2018-01-05T16:20:07.722Z,10.15
2018-01-05T16:22:35.488Z,10.17
2018-01-05T16:25:03.079Z,10.17
2018-01-05T16:27:30.682Z,10.17
2018-01-05T16:29:58.430Z,10.15
2018-01-05T16:32:26.150Z,10.12
2018-01-05T16:40:01.955Z,10.07
2018-01-05T16:42:29.626Z,10.13
2018-01-05T16:44:57.275Z,10.12
2018-01-05T16:47:24.859Z,10.07
2018-01-05T16:49:52.486Z,10.03
2018-01-05T16:52:20.054Z,10.02
2018-01-05T16:54:47.865Z,10.01
2018-01-05T16:57:15.508Z,10.02
2018-01-05T16:59:43.075Z,10.01
2018-01-05T17:02:10.638Z,9.97
2018-01-05T17:04:38.387Z,9.94
2018-01-05T17:07:05.971Z,9.93
2018-01-05T17:09:33.532Z,9.93
2018-01-05T17:12:01.180Z,9.95
2018-01-05T17:14:28.750Z,9.89
2018-01-05T17:16:56.492Z,9.75
2018-01-05T17:19:24.190Z,9.67
2018-01-05T17:21:51.778Z,9.76
2018-01-05T17:24:19.374Z,9.77
2018-01-05T17:26:47.151Z,9.79
2018-01-05T17:29:14.727Z,9.76
2018-01-05T17:31:42.534Z,9.81
2018-01-05T17:34:10.355Z,9.81
2018-01-05T17:36:37.938Z,9.80
2018-01-05T17:39:05.542Z,9.81
2018-01-05T17:41:33.407Z,9.81
2018-01-05T17:44:00.971Z,9.82
2018-01-05T17:46:28.743Z,9.83
2018-01-05T17:48:56.408Z,9.70
2018-01-05T17:51:23.988Z,9.62
2018-01-05T17:53:51.563Z,9.67
2018-01-05T17:56:19.201Z,9.68
2018-01-05T17:58:47.022Z,9.69
2018-01-05T18:01:14.611Z,9.71
2018-01-05T18:03:42.429Z,9.73
2018-01-05T18:06:09.991Z,9.74
2018-01-05T18:08:37.807Z,9.73
2018-01-05T18:11:05.587Z,9.74
2018-01-05T18:13:33.162Z,9.71
2018-01-05T18:16:00.751Z,9.69
2018-01-05T18:18:28.583Z,9.67
2018-01-05T18:20:56.178Z,9.67
2018-01-05T18:23:23.735Z,9.63
2018-01-05T18:25:51.362Z,9.60
2018-01-05T18:28:18.950Z,9.64
2018-01-05T18:30:46.554Z,9.60
2018-01-05T18:33:14.202Z,9.58
2018-01-05T18:35:41.781Z,9.58
2018-01-05T18:38:09.346Z,9.54
2018-01-05T18:40:37.340Z,9.52
2018-01-05T18:43:05.159Z,9.47
2018-01-05T18:45:32.890Z,9.43
2018-01-05T18:48:00.514Z,9.40
2018-01-05T18:50:28.091Z,9.47
2018-01-05T18:52:55.723Z,9.44
2018-01-05T18:55:23.350Z,9.46
2018-01-05T18:57:50.914Z,9.44
2018-01-05T19:00:18.657Z,9.46
2018-01-05T19:02:46.431Z,9.43
2018-01-05T19:05:14.006Z,9.39
2018-01-05T19:07:41.619Z,9.39
2018-01-05T19:10:09.299Z,9.37
2018-01-05T19:12:36.870Z,9.34
2018-01-05T19:15:04.693Z,9.28
2018-01-05T19:17:32.473Z,9.28
2018-01-05T19:20:00.061Z,9.28
2018-01-05T19:22:27.850Z,9.29
2018-01-05T19:24:55.669Z,9.17
2018-01-05T19:27:23.386Z,9.09
2018-01-05T19:29:50.962Z,8.95
2018-01-05T19:32:18.709Z,8.86
2018-01-05T19:34:46.539Z,8.73
2018-01-05T19:37:14.119Z,8.61
2018-01-05T19:39:41.757Z,8.53
2018-01-05T19:42:09.585Z,8.43
2018-01-05T19:44:37.163Z,8.41
2018-01-05T19:47:05.033Z,8.28
2018-01-05T19:49:32.604Z,8.13
2018-01-05T19:52:00.170Z,7.91
2018-01-05T19:54:27.987Z,7.89
2018-01-05T19:56:55.563Z,7.84
2018-01-05T19:59:23.138Z,7.78
2018-01-05T20:01:50.892Z,7.80
2018-01-05T20:04:18.660Z,7.74
2018-01-05T20:06:46.475Z,7.59
2018-01-05T20:09:14.296Z,7.59
2018-01-05T20:11:41.870Z,7.54
2018-01-05T20:14:09.436Z,7.51
2018-01-05T20:16:37.032Z,7.48
2018-01-05T20:19:04.602Z,7.50
2018-01-05T20:21:32.168Z,7.52
2018-01-05T20:24:00.005Z,7.51
2018-01-05T20:26:27.590Z,7.45
2018-01-05T20:28:55.322Z,7.38
2018-01-05T20:31:22.950Z,7.32
2018-01-05T20:33:50.546Z,7.31
2018-01-05T20:36:18.120Z,7.19
2018-01-05T20:38:45.910Z,7.07
2018-01-05T20:41:13.473Z,6.96
2018-01-05T20:43:41.248Z,6.86
2018-01-05T20:46:08.874Z,6.90
2018-01-05T20:48:36.478Z,6.94
2018-01-05T20:51:04.063Z,6.93
2018-01-05T20:53:31.776Z,6.82
2018-01-05T20:55:59.504Z,6.73
2018-01-05T20:58:27.220Z,6.75
2018-01-05T21:00:54.944Z,6.80
2018-01-05T21:03:22.514Z,6.75
2018-01-05T21:05:50.309Z,6.76
2018-01-05T21:08:17.946Z,6.71
2018-01-05T21:10:45.526Z,6.59
2018-01-05T21:13:13.095Z,6.52
2018-01-05T21:15:40.771Z,6.55
2018-01-05T21:18:08.337Z,6.53
2018-01-05T21:20:35.906Z,6.55
2018-01-05T21:23:03.591Z,6.43
2018-01-05T21:25:31.162Z,6.34
2018-01-05T21:27:58.745Z,6.34
2018-01-05T21:30:26.588Z,6.32
2018-01-05T21:32:54.433Z,6.32
2018-01-05T21:35:22.224Z,6.34
2018-01-05T21:37:49.842Z,6.27
2018-01-05T21:40:17.403Z,6.28
2018-01-05T21:42:44.968Z,6.27
2018-01-05T21:45:12.800Z,6.27
2018-01-05T21:47:40.380Z,6.21
2018-01-05T21:50:07.949Z,6.24
2018-01-05T21:52:35.578Z,6.25
2018-01-05T21:55:03.368Z,6.22
2018-01-05T21:57:30.948Z,6.08
2018-01-05T21:59:58.585Z,6.01
2018-01-05T22:02:26.164Z,5.92
2018-01-05T22:04:53.734Z,5.93
2018-01-05T22:07:21.370Z,5.95
2018-01-05T22:09:49.090Z,5.92
2018-01-05T22:12:16.806Z,5.89
2018-01-05T22:14:44.421Z,5.86
2018-01-05T22:17:11.995Z,5.84
2018-01-05T22:19:39.562Z,5.83
2018-01-05T22:22:07.466Z,5.76
2018-01-05T22:24:35.186Z,5.75
2018-01-05T22:27:02.750Z,5.72
2018-01-05T22:29:30.374Z,5.69
2018-01-05T22:31:58.113Z,5.67
2018-01-05T22:34:25.659Z,5.67
2018-01-05T22:36:53.313Z,5.72
2018-01-05T22:39:20.869Z,5.74
2018-01-05T22:41:48.438Z,5.73
2018-01-05T22:44:16.070Z,5.62
2018-01-05T22:46:43.846Z,5.60
2018-01-05T22:49:11.434Z,5.61
2018-01-05T22:51:39.282Z,5.55
2018-01-05T22:54:06.850Z,5.55
2018-01-05T22:56:34.527Z,5.47
2018-01-05T22:59:02.161Z,5.35
2018-01-05T23:01:29.745Z,5.24
2018-01-05T23:03:57.572Z,5.17
2018-01-05T23:06:25.389Z,5.15
2018-01-05T23:08:52.970Z,5.17
2018-01-05T23:11:20.529Z,5.08
2018-01-05T23:13:48.160Z,5.05
2018-01-05T23:16:15.722Z,5.05
2018-01-05T23:18:43.477Z,4.99
2018-01-05T23:21:11.299Z,4.90
2018-01-05T23:23:39.022Z,4.84
2018-01-05T23:26:06.594Z,4.73
2018-01-05T23:28:34.302Z,4.67
2018-01-05T23:31:02.028Z,4.63
2018-01-05T23:33:29.600Z,4.64
2018-01-05T23:35:57.239Z,4.60
2018-01-05T23:38:24.783Z,4.64
2018-01-05T23:40:52.518Z,4.65
2018-01-05T23:43:20.137Z,4.62
2018-01-05T23:45:47.851Z,4.54
2018-01-05T23:48:15.426Z,4.49
2018-01-05T23:50:43.105Z,4.47
2018-01-05T23:53:10.680Z,4.56
2018-01-05T23:55:38.251Z,4.61
2018-01-05T23:58:05.960Z,4.58
